sensor_id;sensor_type;location;lat;lon;timestamp;P1;durP1;ratioP1;P2;durP2;ratioP2
7045;SDS011;3564;53.326;10.356;2022-09-09T00:01:51;14.80;;;13.20;;
7045;SDS011;3564;53.326;10.356;2022-09-09T00:04:29;15.43;;;13.43;;
7045;SDS011;3564;53.326;10.356;2022-09-09T00:10:33;13.70;;;12.20;;
7045;SDS011;3564;53.326;10.356;2022-09-09T00:13:52;15.20;;;13.03;;
7045;SDS011;3564;53.326;10.356;2022-09-09T00:21:32;13.77;;;12.13;;
7045;SDS011;3564;53.326;10.356;2022-09-09T00:24:00;13.33;;;11.93;;
7045;SDS011;3564;53.326;10.356;2022-09-09T00:26:51;13.67;;;12.10;;
7045;SDS011;3564;53.326;10.356;2022-09-09T00:32:15;12.70;;;11.30;;
7045;SDS011;3564;53.326;10.356;2022-09-09T00:34:48;14.37;;;11.57;;
7045;SDS011;3564;53.326;10.356;2022-09-09T00:37:17;13.20;;;11.90;;
7045;SDS011;3564;53.326;10.356;2022-09-09T00:39:46;13.90;;;11.03;;
7045;SDS011;3564;53.326;10.356;2022-09-09T00:42:15;12.80;;;11.50;;
7045;SDS011;3564;53.326;10.356;2022-09-09T00:48:14;12.97;;;10.87;;
7045;SDS011;3564;53.326;10.356;2022-09-09T00:50:44;13.70;;;11.23;;
7045;SDS011;3564;53.326;10.356;2022-09-09T00:56:36;13.70;;;11.23;;
7045;SDS011;3564;53.326;10.356;2022-09-09T01:01:36;12.10;;;10.60;;
7045;SDS011;3564;53.326;10.356;2022-09-09T01:04:01;11.30;;;10.20;;
7045;SDS011;3564;53.326;10.356;2022-09-09T01:06:36;11.70;;;10.30;;
7045;SDS011;3564;53.326;10.356;2022-09-09T01:20:02;11.77;;;9.80;;
7045;SDS011;3564;53.326;10.356;2022-09-09T01:28:33;10.23;;;9.00;;
7045;SDS011;3564;53.326;10.356;2022-09-09T01:31:02;9.60;;;8.53;;
7045;SDS011;3564;53.326;10.356;2022-09-09T01:33:30;9.43;;;8.53;;
7045;SDS011;3564;53.326;10.356;2022-09-09T01:36:01;9.40;;;8.50;;
7045;SDS011;3564;53.326;10.356;2022-09-09T01:38:37;9.10;;;8.20;;
7045;SDS011;3564;53.326;10.356;2022-09-09T01:41:03;10.37;;;9.07;;
7045;SDS011;3564;53.326;10.356;2022-09-09T01:43:29;9.53;;;8.50;;
7045;SDS011;3564;53.326;10.356;2022-09-09T01:45:55;10.17;;;9.17;;
7045;SDS011;3564;53.326;10.356;2022-09-09T01:48:24;10.50;;;8.93;;
7045;SDS011;3564;53.326;10.356;2022-09-09T01:50:50;8.93;;;7.07;;
7045;SDS011;3564;53.326;10.356;2022-09-09T01:53:17;8.83;;;7.93;;
7045;SDS011;3564;53.326;10.356;2022-09-09T01:55:46;9.73;;;8.83;;
7045;SDS011;3564;53.326;10.356;2022-09-09T02:01:06;9.90;;;8.90;;
7045;SDS011;3564;53.326;10.356;2022-09-09T02:03:32;9.40;;;8.40;;
7045;SDS011;3564;53.326;10.356;2022-09-09T02:08:50;9.30;;;7.80;;
7045;SDS011;3564;53.326;10.356;2022-09-09T02:11:20;9.80;;;8.67;;
7045;SDS011;3564;53.326;10.356;2022-09-09T02:13:50;10.33;;;8.53;;
7045;SDS011;3564;53.326;10.356;2022-09-09T02:19:34;9.80;;;8.80;;
7045;SDS011;3564;53.326;10.356;2022-09-09T02:21:51;11.67;;;9.33;;
7045;SDS011;3564;53.326;10.356;2022-09-09T02:24:19;10.73;;;9.23;;
7045;SDS011;3564;53.326;10.356;2022-09-09T02:26:51;10.67;;;9.50;;
7045;SDS011;3564;53.326;10.356;2022-09-09T02:29:20;11.60;;;9.70;;
7045;SDS011;3564;53.326;10.356;2022-09-09T02:31:52;10.60;;;9.50;;
7045;SDS011;3564;53.326;10.356;2022-09-09T02:34:20;12.13;;;9.80;;
7045;SDS011;3564;53.326;10.356;2022-09-09T02:36:49;10.93;;;8.97;;
7045;SDS011;3564;53.326;10.356;2022-09-09T02:39:18;11.73;;;9.47;;
7045;SDS011;3564;53.326;10.356;2022-09-09T02:41:44;11.13;;;9.93;;
7045;SDS011;3564;53.326;10.356;2022-09-09T02:44:13;10.50;;;9.40;;
7045;SDS011;3564;53.326;10.356;2022-09-09T02:55:41;10.87;;;9.53;;
7045;SDS011;3564;53.326;10.356;2022-09-09T02:58:12;10.60;;;9.17;;
7045;SDS011;3564;53.326;10.356;2022-09-09T03:00:41;10.63;;;8.97;;
7045;SDS011;3564;53.326;10.356;2022-09-09T03:03:28;11.67;;;9.87;;
7045;SDS011;3564;53.326;10.356;2022-09-09T03:05:55;11.83;;;10.33;;
7045;SDS011;3564;53.326;10.356;2022-09-09T03:08:21;10.50;;;9.43;;
7045;SDS011;3564;53.326;10.356;2022-09-09T03:10:47;11.37;;;10.17;;
7045;SDS011;3564;53.326;10.356;2022-09-09T03:13:13;10.83;;;9.73;;
7045;SDS011;3564;53.326;10.356;2022-09-09T03:15:40;11.03;;;9.70;;
7045;SDS011;3564;53.326;10.356;2022-09-09T03:18:06;10.43;;;9.33;;
7045;SDS011;3564;53.326;10.356;2022-09-09T03:20:31;10.80;;;9.47;;
7045;SDS011;3564;53.326;10.356;2022-09-09T03:22:58;11.60;;;9.47;;
7045;SDS011;3564;53.326;10.356;2022-09-09T03:25:24;10.63;;;9.47;;
7045;SDS011;3564;53.326;10.356;2022-09-09T03:27:51;10.43;;;9.33;;
7045;SDS011;3564;53.326;10.356;2022-09-09T03:30:19;10.10;;;8.50;;
7045;SDS011;3564;53.326;10.356;2022-09-09T03:32:48;9.07;;;8.17;;
7045;SDS011;3564;53.326;10.356;2022-09-09T03:35:14;9.53;;;8.60;;
7045;SDS011;3564;53.326;10.356;2022-09-09T03:37:40;8.83;;;7.93;;
7045;SDS011;3564;53.326;10.356;2022-09-09T03:40:06;10.40;;;8.33;;
7045;SDS011;3564;53.326;10.356;2022-09-09T03:42:33;11.47;;;9.33;;
7045;SDS011;3564;53.326;10.356;2022-09-09T03:44:58;8.23;;;7.43;;
7045;SDS011;3564;53.326;10.356;2022-09-09T03:47:24;10.73;;;8.13;;
7045;SDS011;3564;53.326;10.356;2022-09-09T03:49:50;9.30;;;8.40;;
7045;SDS011;3564;53.326;10.356;2022-09-09T03:52:15;9.57;;;8.43;;
7045;SDS011;3564;53.326;10.356;2022-09-09T03:54:41;8.20;;;7.40;;
7045;SDS011;3564;53.326;10.356;2022-09-09T03:57:07;8.07;;;7.27;;
7045;SDS011;3564;53.326;10.356;2022-09-09T03:59:36;8.27;;;7.47;;
7045;SDS011;3564;53.326;10.356;2022-09-09T04:02:02;8.40;;;7.60;;
7045;SDS011;3564;53.326;10.356;2022-09-09T04:04:28;8.40;;;7.47;;
7045;SDS011;3564;53.326;10.356;2022-09-09T04:06:54;9.07;;;8.17;;
7045;SDS011;3564;53.326;10.356;2022-09-09T04:09:20;8.17;;;7.10;;
7045;SDS011;3564;53.326;10.356;2022-09-09T04:11:45;8.63;;;7.73;;
7045;SDS011;3564;53.326;10.356;2022-09-09T04:14:11;8.83;;;7.93;;
7045;SDS011;3564;53.326;10.356;2022-09-09T04:16:37;9.13;;;7.63;;
7045;SDS011;3564;53.326;10.356;2022-09-09T04:19:03;8.60;;;6.83;;
7045;SDS011;3564;53.326;10.356;2022-09-09T04:21:31;8.60;;;6.97;;
7045;SDS011;3564;53.326;10.356;2022-09-09T04:23:57;7.67;;;6.83;;
7045;SDS011;3564;53.326;10.356;2022-09-09T04:26:22;8.63;;;7.73;;
7045;SDS011;3564;53.326;10.356;2022-09-09T04:28:48;7.23;;;6.50;;
7045;SDS011;3564;53.326;10.356;2022-09-09T04:31:15;8.00;;;7.20;;
7045;SDS011;3564;53.326;10.356;2022-09-09T04:33:43;10.40;;;7.10;;
7045;SDS011;3564;53.326;10.356;2022-09-09T04:36:11;8.53;;;6.67;;
7045;SDS011;3564;53.326;10.356;2022-09-09T04:38:37;7.57;;;6.87;;
7045;SDS011;3564;53.326;10.356;2022-09-09T04:41:04;7.23;;;6.47;;
7045;SDS011;3564;53.326;10.356;2022-09-09T04:43:30;7.10;;;5.97;;
7045;SDS011;3564;53.326;10.356;2022-09-09T04:45:56;7.00;;;5.93;;
7045;SDS011;3564;53.326;10.356;2022-09-09T04:48:22;6.90;;;6.20;;
7045;SDS011;3564;53.326;10.356;2022-09-09T04:50:55;6.63;;;5.77;;
7045;SDS011;3564;53.326;10.356;2022-09-09T04:53:24;7.03;;;5.90;;
7045;SDS011;3564;53.326;10.356;2022-09-09T04:55:51;7.63;;;5.90;;
7045;SDS011;3564;53.326;10.356;2022-09-09T04:58:17;8.47;;;6.57;;
7045;SDS011;3564;53.326;10.356;2022-09-09T05:00:43;6.60;;;5.80;;
7045;SDS011;3564;53.326;10.356;2022-09-09T05:03:09;5.67;;;4.97;;
7045;SDS011;3564;53.326;10.356;2022-09-09T05:05:34;7.07;;;5.80;;
7045;SDS011;3564;53.326;10.356;2022-09-09T05:08:04;7.47;;;5.77;;
7045;SDS011;3564;53.326;10.356;2022-09-09T05:10:32;9.37;;;5.80;;
7045;SDS011;3564;53.326;10.356;2022-09-09T05:12:58;5.73;;;5.13;;
7045;SDS011;3564;53.326;10.356;2022-09-09T05:15:25;5.73;;;4.70;;
7045;SDS011;3564;53.326;10.356;2022-09-09T05:17:50;5.63;;;4.90;;
7045;SDS011;3564;53.326;10.356;2022-09-09T05:20:18;7.07;;;5.37;;
7045;SDS011;3564;53.326;10.356;2022-09-09T05:22:43;8.07;;;5.27;;
7045;SDS011;3564;53.326;10.356;2022-09-09T05:25:09;6.93;;;5.73;;
7045;SDS011;3564;53.326;10.356;2022-09-09T05:27:34;5.33;;;4.80;;
7045;SDS011;3564;53.326;10.356;2022-09-09T05:30:00;7.17;;;5.53;;
7045;SDS011;3564;53.326;10.356;2022-09-09T05:32:26;5.00;;;4.50;;
7045;SDS011;3564;53.326;10.356;2022-09-09T05:34:52;5.40;;;4.90;;
7045;SDS011;3564;53.326;10.356;2022-09-09T05:37:19;5.00;;;4.60;;
7045;SDS011;3564;53.326;10.356;2022-09-09T05:39:44;6.50;;;4.83;;
7045;SDS011;3564;53.326;10.356;2022-09-09T05:42:10;7.70;;;5.33;;
7045;SDS011;3564;53.326;10.356;2022-09-09T05:44:35;4.73;;;4.27;;
7045;SDS011;3564;53.326;10.356;2022-09-09T05:47:02;6.50;;;4.33;;
7045;SDS011;3564;53.326;10.356;2022-09-09T05:49:27;4.87;;;4.37;;
7045;SDS011;3564;53.326;10.356;2022-09-09T05:51:53;5.70;;;4.53;;
7045;SDS011;3564;53.326;10.356;2022-09-09T05:54:18;5.93;;;4.60;;
7045;SDS011;3564;53.326;10.356;2022-09-09T05:56:44;5.70;;;4.30;;
7045;SDS011;3564;53.326;10.356;2022-09-09T05:59:09;5.57;;;4.13;;
7045;SDS011;3564;53.326;10.356;2022-09-09T06:01:36;5.23;;;4.73;;
7045;SDS011;3564;53.326;10.356;2022-09-09T06:04:05;4.23;;;3.83;;
7045;SDS011;3564;53.326;10.356;2022-09-09T06:06:32;6.07;;;3.70;;
7045;SDS011;3564;53.326;10.356;2022-09-09T06:09:02;4.03;;;3.70;;
7045;SDS011;3564;53.326;10.356;2022-09-09T06:11:31;4.00;;;3.60;;
7045;SDS011;3564;53.326;10.356;2022-09-09T06:13:58;4.60;;;3.63;;
7045;SDS011;3564;53.326;10.356;2022-09-09T06:16:24;4.63;;;3.50;;
7045;SDS011;3564;53.326;10.356;2022-09-09T06:18:53;6.40;;;3.67;;
7045;SDS011;3564;53.326;10.356;2022-09-09T06:23:48;3.30;;;3.00;;
7045;SDS011;3564;53.326;10.356;2022-09-09T06:26:18;3.37;;;2.70;;
7045;SDS011;3564;53.326;10.356;2022-09-09T06:28:46;3.73;;;3.13;;
7045;SDS011;3564;53.326;10.356;2022-09-09T06:31:14;3.67;;;2.67;;
7045;SDS011;3564;53.326;10.356;2022-09-09T06:33:47;3.03;;;2.70;;
7045;SDS011;3564;53.326;10.356;2022-09-09T06:36:18;4.07;;;2.83;;
7045;SDS011;3564;53.326;10.356;2022-09-09T06:38:45;3.83;;;2.80;;
7045;SDS011;3564;53.326;10.356;2022-09-09T06:41:12;3.83;;;2.80;;
7045;SDS011;3564;53.326;10.356;2022-09-09T06:43:40;2.60;;;2.40;;
7045;SDS011;3564;53.326;10.356;2022-09-09T06:46:08;5.60;;;2.50;;
7045;SDS011;3564;53.326;10.356;2022-09-09T06:48:36;3.33;;;2.43;;
7045;SDS011;3564;53.326;10.356;2022-09-09T06:51:03;2.70;;;2.50;;
7045;SDS011;3564;53.326;10.356;2022-09-09T06:53:29;3.23;;;2.60;;
7045;SDS011;3564;53.326;10.356;2022-09-09T06:56:02;4.23;;;2.90;;
7045;SDS011;3564;53.326;10.356;2022-09-09T06:58:43;4.23;;;2.80;;
7045;SDS011;3564;53.326;10.356;2022-09-09T07:01:10;6.73;;;3.03;;
7045;SDS011;3564;53.326;10.356;2022-09-09T07:03:41;2.73;;;2.33;;
7045;SDS011;3564;53.326;10.356;2022-09-09T07:06:26;2.50;;;2.30;;
7045;SDS011;3564;53.326;10.356;2022-09-09T07:08:57;5.63;;;2.43;;
7045;SDS011;3564;53.326;10.356;2022-09-09T07:11:25;5.67;;;2.50;;
7045;SDS011;3564;53.326;10.356;2022-09-09T07:13:54;5.83;;;2.67;;
7045;SDS011;3564;53.326;10.356;2022-09-09T07:16:22;5.90;;;2.70;;
7045;SDS011;3564;53.326;10.356;2022-09-09T07:18:50;5.10;;;3.17;;
7045;SDS011;3564;53.326;10.356;2022-09-09T07:21:16;3.57;;;2.20;;
7045;SDS011;3564;53.326;10.356;2022-09-09T07:23:42;4.30;;;2.70;;
7045;SDS011;3564;53.326;10.356;2022-09-09T07:26:12;3.13;;;1.83;;
7045;SDS011;3564;53.326;10.356;2022-09-09T07:28:40;5.63;;;2.10;;
7045;SDS011;3564;53.326;10.356;2022-09-09T07:31:07;3.60;;;2.03;;
7045;SDS011;3564;53.326;10.356;2022-09-09T07:33:40;5.43;;;2.50;;
7045;SDS011;3564;53.326;10.356;2022-09-09T07:36:07;2.83;;;2.00;;
7045;SDS011;3564;53.326;10.356;2022-09-09T07:38:40;3.93;;;2.63;;
7045;SDS011;3564;53.326;10.356;2022-09-09T07:41:15;2.07;;;1.87;;
7045;SDS011;3564;53.326;10.356;2022-09-09T07:43:43;3.00;;;2.17;;
7045;SDS011;3564;53.326;10.356;2022-09-09T07:46:10;2.97;;;1.87;;
7045;SDS011;3564;53.326;10.356;2022-09-09T07:48:37;3.93;;;2.50;;
7045;SDS011;3564;53.326;10.356;2022-09-09T07:51:07;5.20;;;2.03;;
7045;SDS011;3564;53.326;10.356;2022-09-09T07:53:44;3.40;;;2.30;;
7045;SDS011;3564;53.326;10.356;2022-09-09T07:56:12;4.07;;;2.13;;
7045;SDS011;3564;53.326;10.356;2022-09-09T07:58:40;4.23;;;1.90;;
7045;SDS011;3564;53.326;10.356;2022-09-09T08:01:09;2.40;;;2.20;;
7045;SDS011;3564;53.326;10.356;2022-09-09T08:03:37;4.27;;;2.17;;
7045;SDS011;3564;53.326;10.356;2022-09-09T08:06:03;2.47;;;2.13;;
7045;SDS011;3564;53.326;10.356;2022-09-09T08:08:32;5.80;;;2.30;;
7045;SDS011;3564;53.326;10.356;2022-09-09T08:11:03;4.63;;;2.30;;
7045;SDS011;3564;53.326;10.356;2022-09-09T08:13:28;4.57;;;2.57;;
7045;SDS011;3564;53.326;10.356;2022-09-09T08:15:55;3.77;;;2.17;;
7045;SDS011;3564;53.326;10.356;2022-09-09T08:18:29;2.93;;;2.07;;
7045;SDS011;3564;53.326;10.356;2022-09-09T08:20:55;4.67;;;2.43;;
7045;SDS011;3564;53.326;10.356;2022-09-09T08:23:20;5.37;;;2.40;;
7045;SDS011;3564;53.326;10.356;2022-09-09T08:25:46;4.67;;;2.47;;
7045;SDS011;3564;53.326;10.356;2022-09-09T08:28:13;4.00;;;2.60;;
7045;SDS011;3564;53.326;10.356;2022-09-09T08:30:39;3.30;;;2.23;;
7045;SDS011;3564;53.326;10.356;2022-09-09T08:33:04;2.47;;;1.90;;
7045;SDS011;3564;53.326;10.356;2022-09-09T08:35:30;2.23;;;1.83;;
7045;SDS011;3564;53.326;10.356;2022-09-09T08:37:57;3.27;;;2.07;;
7045;SDS011;3564;53.326;10.356;2022-09-09T08:40:25;3.07;;;2.20;;
7045;SDS011;3564;53.326;10.356;2022-09-09T08:42:54;4.13;;;2.10;;
7045;SDS011;3564;53.326;10.356;2022-09-09T08:45:29;2.87;;;2.10;;
7045;SDS011;3564;53.326;10.356;2022-09-09T08:50:56;5.00;;;2.30;;
7045;SDS011;3564;53.326;10.356;2022-09-09T08:53:27;2.40;;;2.03;;
7045;SDS011;3564;53.326;10.356;2022-09-09T08:56:00;4.90;;;2.37;;
7045;SDS011;3564;53.326;10.356;2022-09-09T08:58:32;3.43;;;1.80;;
7045;SDS011;3564;53.326;10.356;2022-09-09T09:08:57;4.37;;;1.93;;
7045;SDS011;3564;53.326;10.356;2022-09-09T09:11:25;2.80;;;2.00;;
7045;SDS011;3564;53.326;10.356;2022-09-09T09:19:38;3.97;;;1.90;;
7045;SDS011;3564;53.326;10.356;2022-09-09T09:25:00;3.10;;;2.47;;
7045;SDS011;3564;53.326;10.356;2022-09-09T09:27:40;5.30;;;3.07;;
7045;SDS011;3564;53.326;10.356;2022-09-09T09:30:23;3.63;;;2.20;;
7045;SDS011;3564;53.326;10.356;2022-09-09T09:32:56;4.03;;;2.13;;
7045;SDS011;3564;53.326;10.356;2022-09-09T09:35:26;3.20;;;2.00;;
7045;SDS011;3564;53.326;10.356;2022-09-09T09:37:51;4.23;;;1.90;;
7045;SDS011;3564;53.326;10.356;2022-09-09T09:40:19;3.37;;;2.10;;
7045;SDS011;3564;53.326;10.356;2022-09-09T09:42:53;3.23;;;1.90;;
7045;SDS011;3564;53.326;10.356;2022-09-09T09:45:54;2.90;;;1.80;;
7045;SDS011;3564;53.326;10.356;2022-09-09T09:48:13;4.17;;;1.73;;
7045;SDS011;3564;53.326;10.356;2022-09-09T09:50:49;3.30;;;1.70;;
7045;SDS011;3564;53.326;10.356;2022-09-09T09:53:30;2.33;;;1.43;;
7045;SDS011;3564;53.326;10.356;2022-09-09T09:56:01;2.13;;;1.60;;
7045;SDS011;3564;53.326;10.356;2022-09-09T09:58:33;2.93;;;1.83;;
7045;SDS011;3564;53.326;10.356;2022-09-09T10:06:32;1.63;;;1.40;;
7045;SDS011;3564;53.326;10.356;2022-09-09T10:08:59;3.23;;;1.70;;
7045;SDS011;3564;53.326;10.356;2022-09-09T10:11:47;2.17;;;1.80;;
7045;SDS011;3564;53.326;10.356;2022-09-09T10:14:25;2.97;;;1.60;;
7045;SDS011;3564;53.326;10.356;2022-09-09T10:17:08;2.83;;;1.80;;
7045;SDS011;3564;53.326;10.356;2022-09-09T10:22:45;4.50;;;1.83;;
7045;SDS011;3564;53.326;10.356;2022-09-09T10:25:25;2.83;;;1.90;;
7045;SDS011;3564;53.326;10.356;2022-09-09T10:28:20;3.40;;;1.73;;
7045;SDS011;3564;53.326;10.356;2022-09-09T10:33:57;2.80;;;1.90;;
7045;SDS011;3564;53.326;10.356;2022-09-09T10:36:46;2.57;;;1.80;;
7045;SDS011;3564;53.326;10.356;2022-09-09T10:42:06;2.80;;;1.70;;
7045;SDS011;3564;53.326;10.356;2022-09-09T10:44:55;4.97;;;2.10;;
7045;SDS011;3564;53.326;10.356;2022-09-09T10:51:10;4.30;;;2.00;;
7045;SDS011;3564;53.326;10.356;2022-09-09T10:56:44;2.23;;;1.50;;
7045;SDS011;3564;53.326;10.356;2022-09-09T10:59:20;3.53;;;1.77;;
7045;SDS011;3564;53.326;10.356;2022-09-09T11:01:53;3.30;;;2.00;;
7045;SDS011;3564;53.326;10.356;2022-09-09T11:04:33;2.50;;;2.00;;
7045;SDS011;3564;53.326;10.356;2022-09-09T11:07:18;2.70;;;1.50;;
7045;SDS011;3564;53.326;10.356;2022-09-09T11:13:17;2.50;;;1.90;;
7045;SDS011;3564;53.326;10.356;2022-09-09T11:15:51;3.03;;;1.40;;
7045;SDS011;3564;53.326;10.356;2022-09-09T11:18:22;2.73;;;1.40;;
7045;SDS011;3564;53.326;10.356;2022-09-09T11:20:49;1.63;;;1.33;;
7045;SDS011;3564;53.326;10.356;2022-09-09T11:26:38;2.40;;;1.60;;
7045;SDS011;3564;53.326;10.356;2022-09-09T11:37:38;2.37;;;1.30;;
7045;SDS011;3564;53.326;10.356;2022-09-09T11:40:30;2.93;;;1.50;;
7045;SDS011;3564;53.326;10.356;2022-09-09T11:43:31;2.67;;;1.53;;
7045;SDS011;3564;53.326;10.356;2022-09-09T11:45:55;1.87;;;1.57;;
7045;SDS011;3564;53.326;10.356;2022-09-09T11:48:36;3.77;;;1.70;;
7045;SDS011;3564;53.326;10.356;2022-09-09T11:51:08;2.60;;;1.60;;
7045;SDS011;3564;53.326;10.356;2022-09-09T11:53:36;2.80;;;1.30;;
7045;SDS011;3564;53.326;10.356;2022-09-09T11:56:42;1.67;;;1.47;;
7045;SDS011;3564;53.326;10.356;2022-09-09T11:59:28;3.30;;;1.90;;
7045;SDS011;3564;53.326;10.356;2022-09-09T12:01:58;2.00;;;1.50;;
7045;SDS011;3564;53.326;10.356;2022-09-09T12:07:19;3.27;;;1.60;;
7045;SDS011;3564;53.326;10.356;2022-09-09T12:12:37;1.30;;;1.20;;
7045;SDS011;3564;53.326;10.356;2022-09-09T12:15:17;3.17;;;1.50;;
7045;SDS011;3564;53.326;10.356;2022-09-09T12:17:49;3.13;;;1.80;;
7045;SDS011;3564;53.326;10.356;2022-09-09T12:20:18;5.33;;;2.03;;
7045;SDS011;3564;53.326;10.356;2022-09-09T12:23:01;4.83;;;2.17;;
7045;SDS011;3564;53.326;10.356;2022-09-09T12:28:27;3.97;;;1.70;;
7045;SDS011;3564;53.326;10.356;2022-09-09T12:33:50;3.30;;;2.07;;
7045;SDS011;3564;53.326;10.356;2022-09-09T12:36:24;2.60;;;1.70;;
7045;SDS011;3564;53.326;10.356;2022-09-09T12:38:53;4.17;;;1.70;;
7045;SDS011;3564;53.326;10.356;2022-09-09T12:41:22;3.90;;;1.70;;
7045;SDS011;3564;53.326;10.356;2022-09-09T12:43:50;5.90;;;1.90;;
7045;SDS011;3564;53.326;10.356;2022-09-09T12:46:22;2.10;;;1.50;;
7045;SDS011;3564;53.326;10.356;2022-09-09T12:48:51;2.13;;;1.50;;
7045;SDS011;3564;53.326;10.356;2022-09-09T12:51:19;5.63;;;2.00;;
7045;SDS011;3564;53.326;10.356;2022-09-09T12:53:50;1.77;;;1.40;;
7045;SDS011;3564;53.326;10.356;2022-09-09T12:56:20;4.27;;;1.60;;
7045;SDS011;3564;53.326;10.356;2022-09-09T12:58:51;3.07;;;1.87;;
7045;SDS011;3564;53.326;10.356;2022-09-09T13:01:29;3.53;;;1.70;;
7045;SDS011;3564;53.326;10.356;2022-09-09T13:03:57;6.37;;;1.73;;
7045;SDS011;3564;53.326;10.356;2022-09-09T13:06:25;4.97;;;1.87;;
7045;SDS011;3564;53.326;10.356;2022-09-09T13:08:52;4.27;;;1.90;;
7045;SDS011;3564;53.326;10.356;2022-09-09T13:11:20;3.97;;;1.90;;
7045;SDS011;3564;53.326;10.356;2022-09-09T13:14:01;2.53;;;1.70;;
7045;SDS011;3564;53.326;10.356;2022-09-09T13:16:28;3.63;;;1.70;;
7045;SDS011;3564;53.326;10.356;2022-09-09T13:18:58;2.73;;;1.80;;
7045;SDS011;3564;53.326;10.356;2022-09-09T13:21:42;3.30;;;2.00;;
7045;SDS011;3564;53.326;10.356;2022-09-09T13:33:20;2.10;;;1.90;;
7045;SDS011;3564;53.326;10.356;2022-09-09T13:38:16;4.07;;;2.03;;
7045;SDS011;3564;53.326;10.356;2022-09-09T13:40:52;2.37;;;1.77;;
7045;SDS011;3564;53.326;10.356;2022-09-09T13:43:38;2.90;;;1.80;;
7045;SDS011;3564;53.326;10.356;2022-09-09T13:49:22;4.40;;;2.67;;
7045;SDS011;3564;53.326;10.356;2022-09-09T13:51:48;4.77;;;2.60;;
7045;SDS011;3564;53.326;10.356;2022-09-09T13:54:17;2.63;;;2.30;;
7045;SDS011;3564;53.326;10.356;2022-09-09T13:56:44;3.33;;;2.40;;
7045;SDS011;3564;53.326;10.356;2022-09-09T13:59:14;3.87;;;2.20;;
7045;SDS011;3564;53.326;10.356;2022-09-09T14:01:43;3.13;;;2.50;;
7045;SDS011;3564;53.326;10.356;2022-09-09T14:04:09;3.77;;;2.40;;
7045;SDS011;3564;53.326;10.356;2022-09-09T14:06:35;4.40;;;2.50;;
7045;SDS011;3564;53.326;10.356;2022-09-09T14:09:10;5.87;;;2.23;;
7045;SDS011;3564;53.326;10.356;2022-09-09T14:11:37;6.67;;;2.20;;
7045;SDS011;3564;53.326;10.356;2022-09-09T14:14:03;8.33;;;2.83;;
7045;SDS011;3564;53.326;10.356;2022-09-09T14:16:30;5.63;;;1.87;;
7045;SDS011;3564;53.326;10.356;2022-09-09T14:18:55;4.73;;;2.00;;
7045;SDS011;3564;53.326;10.356;2022-09-09T14:21:21;5.37;;;1.57;;
7045;SDS011;3564;53.326;10.356;2022-09-09T14:23:47;4.73;;;1.63;;
7045;SDS011;3564;53.326;10.356;2022-09-09T14:26:13;1.93;;;1.57;;
7045;SDS011;3564;53.326;10.356;2022-09-09T14:28:39;4.23;;;2.00;;
7045;SDS011;3564;53.326;10.356;2022-09-09T14:31:05;4.40;;;2.00;;
7045;SDS011;3564;53.326;10.356;2022-09-09T14:33:32;4.30;;;1.60;;
7045;SDS011;3564;53.326;10.356;2022-09-09T14:35:59;6.20;;;1.60;;
7045;SDS011;3564;53.326;10.356;2022-09-09T14:38:29;3.50;;;1.57;;
7045;SDS011;3564;53.326;10.356;2022-09-09T14:40:56;3.07;;;1.60;;
7045;SDS011;3564;53.326;10.356;2022-09-09T14:43:23;4.27;;;1.80;;
7045;SDS011;3564;53.326;10.356;2022-09-09T14:45:49;2.33;;;1.30;;
7045;SDS011;3564;53.326;10.356;2022-09-09T14:48:16;4.07;;;1.83;;
7045;SDS011;3564;53.326;10.356;2022-09-09T14:50:42;3.23;;;1.60;;
7045;SDS011;3564;53.326;10.356;2022-09-09T14:53:08;3.03;;;1.43;;
7045;SDS011;3564;53.326;10.356;2022-09-09T14:55:35;2.07;;;1.60;;
7045;SDS011;3564;53.326;10.356;2022-09-09T14:58:02;5.43;;;2.63;;
7045;SDS011;3564;53.326;10.356;2022-09-09T15:00:28;5.47;;;2.00;;
7045;SDS011;3564;53.326;10.356;2022-09-09T15:02:54;6.20;;;2.30;;
7045;SDS011;3564;53.326;10.356;2022-09-09T15:05:20;3.60;;;2.20;;
7045;SDS011;3564;53.326;10.356;2022-09-09T15:07:47;5.70;;;2.27;;
7045;SDS011;3564;53.326;10.356;2022-09-09T15:10:16;4.40;;;3.13;;
7045;SDS011;3564;53.326;10.356;2022-09-09T15:12:42;7.93;;;5.30;;
7045;SDS011;3564;53.326;10.356;2022-09-09T15:15:08;7.37;;;4.43;;
7045;SDS011;3564;53.326;10.356;2022-09-09T15:17:35;5.77;;;3.30;;
7045;SDS011;3564;53.326;10.356;2022-09-09T15:20:01;5.20;;;2.80;;
7045;SDS011;3564;53.326;10.356;2022-09-09T15:22:30;4.30;;;1.93;;
7045;SDS011;3564;53.326;10.356;2022-09-09T15:24:56;4.10;;;1.90;;
7045;SDS011;3564;53.326;10.356;2022-09-09T15:27:22;3.30;;;1.70;;
7045;SDS011;3564;53.326;10.356;2022-09-09T15:29:48;3.10;;;2.20;;
7045;SDS011;3564;53.326;10.356;2022-09-09T15:32:15;3.13;;;1.70;;
7045;SDS011;3564;53.326;10.356;2022-09-09T15:34:40;3.90;;;1.70;;
7045;SDS011;3564;53.326;10.356;2022-09-09T15:37:09;5.17;;;2.03;;
7045;SDS011;3564;53.326;10.356;2022-09-09T15:39:35;3.20;;;2.00;;
7045;SDS011;3564;53.326;10.356;2022-09-09T15:42:02;3.33;;;1.70;;
7045;SDS011;3564;53.326;10.356;2022-09-09T15:44:28;18.87;;;16.30;;
7045;SDS011;3564;53.326;10.356;2022-09-09T15:46:53;4.80;;;4.30;;
7045;SDS011;3564;53.326;10.356;2022-09-09T15:49:20;4.13;;;2.13;;
7045;SDS011;3564;53.326;10.356;2022-09-09T15:51:57;2.80;;;1.70;;
7045;SDS011;3564;53.326;10.356;2022-09-09T15:54:27;3.57;;;2.37;;
7045;SDS011;3564;53.326;10.356;2022-09-09T15:56:56;3.50;;;3.20;;
7045;SDS011;3564;53.326;10.356;2022-09-09T15:59:25;3.40;;;2.07;;
7045;SDS011;3564;53.326;10.356;2022-09-09T16:01:53;3.60;;;2.40;;
7045;SDS011;3564;53.326;10.356;2022-09-09T16:04:19;2.63;;;2.00;;
7045;SDS011;3564;53.326;10.356;2022-09-09T16:06:52;2.40;;;2.07;;
7045;SDS011;3564;53.326;10.356;2022-09-09T16:09:20;2.40;;;2.17;;
7045;SDS011;3564;53.326;10.356;2022-09-09T16:11:46;3.60;;;2.50;;
7045;SDS011;3564;53.326;10.356;2022-09-09T16:14:13;4.17;;;2.30;;
7045;SDS011;3564;53.326;10.356;2022-09-09T16:16:40;2.13;;;1.93;;
7045;SDS011;3564;53.326;10.356;2022-09-09T16:19:07;18.83;;;15.03;;
7045;SDS011;3564;53.326;10.356;2022-09-09T16:21:35;12.40;;;9.03;;
7045;SDS011;3564;53.326;10.356;2022-09-09T16:24:08;4.17;;;2.90;;
7045;SDS011;3564;53.326;10.356;2022-09-09T16:26:36;3.00;;;2.60;;
7045;SDS011;3564;53.326;10.356;2022-09-09T16:29:04;2.90;;;2.60;;
7045;SDS011;3564;53.326;10.356;2022-09-09T16:31:30;3.27;;;2.50;;
7045;SDS011;3564;53.326;10.356;2022-09-09T16:33:59;3.30;;;2.60;;
7045;SDS011;3564;53.326;10.356;2022-09-09T16:36:28;3.93;;;2.80;;
7045;SDS011;3564;53.326;10.356;2022-09-09T16:39:12;3.07;;;2.73;;
7045;SDS011;3564;53.326;10.356;2022-09-09T16:41:39;3.60;;;2.50;;
7045;SDS011;3564;53.326;10.356;2022-09-09T16:44:06;4.47;;;2.53;;
7045;SDS011;3564;53.326;10.356;2022-09-09T16:46:35;3.93;;;2.73;;
7045;SDS011;3564;53.326;10.356;2022-09-09T16:49:04;3.03;;;2.80;;
7045;SDS011;3564;53.326;10.356;2022-09-09T16:51:32;5.13;;;2.97;;
7045;SDS011;3564;53.326;10.356;2022-09-09T16:54:03;2.97;;;2.60;;
7045;SDS011;3564;53.326;10.356;2022-09-09T16:56:32;4.07;;;2.90;;
7045;SDS011;3564;53.326;10.356;2022-09-09T16:59:00;4.70;;;2.93;;
7045;SDS011;3564;53.326;10.356;2022-09-09T17:01:28;3.83;;;2.73;;
7045;SDS011;3564;53.326;10.356;2022-09-09T17:03:57;4.57;;;3.13;;
7045;SDS011;3564;53.326;10.356;2022-09-09T17:06:24;3.43;;;3.13;;
7045;SDS011;3564;53.326;10.356;2022-09-09T17:08:58;4.30;;;3.17;;
7045;SDS011;3564;53.326;10.356;2022-09-09T17:11:26;5.87;;;2.87;;
7045;SDS011;3564;53.326;10.356;2022-09-09T17:13:52;7.13;;;3.40;;
7045;SDS011;3564;53.326;10.356;2022-09-09T17:16:20;3.80;;;3.47;;
7045;SDS011;3564;53.326;10.356;2022-09-09T17:18:48;4.10;;;3.60;;
7045;SDS011;3564;53.326;10.356;2022-09-09T17:21:15;4.13;;;3.03;;
7045;SDS011;3564;53.326;10.356;2022-09-09T17:23:43;4.30;;;3.40;;
7045;SDS011;3564;53.326;10.356;2022-09-09T17:26:10;4.07;;;3.17;;
7045;SDS011;3564;53.326;10.356;2022-09-09T17:28:38;3.57;;;2.73;;
7045;SDS011;3564;53.326;10.356;2022-09-09T17:31:05;4.70;;;3.40;;
7045;SDS011;3564;53.326;10.356;2022-09-09T17:33:33;5.63;;;3.60;;